Time;durP1;ratioP1;P1;durP2;ratioP2;P2;SDS_P1;SDS_P2;PMS_P1;PMS_P2;Temp;Humidity;BMP_temperature;BMP_pressure;BME280_temperature;BME280_humidity;BME280_pressure;Samples;Min_cycle;Max_cycle;Signal;HPM_P1;HPM_P2
2024/01/13 06:00:13;;;;;;;60.10;40.77;;;;;;;;;;1748574;28;20440;-77
2024/01/13 06:01:04;;;;;;;60.40;40.55;;;;;;;;;;1748643;28;20460;-77
2024/01/13 06:01:56;;;;;;;67.18;42.08;;;;;;;;;;1748578;28;20230;-77
2024/01/13 06:02:47;;;;;;;61.70;40.65;;;;;;;;;;1743416;28;20299;-77
2024/01/13 06:03:39;;;;;;;63.70;43.30;;;;;;;;;;1741721;28;20710;-77
2024/01/13 06:04:30;;;;;;;63.00;40.72;;;;;;;;;;1745054;28;20560;-77
2024/01/13 06:05:21;;;;;;;61.97;41.97;;;;;;;;;;1748610;28;20206;-77
2024/01/13 06:06:13;;;;;;;66.03;42.15;;;;;;;;;;1746725;28;20658;-77
2024/01/13 06:07:05;;;;;;;65.70;42.60;;;;;;;;;;1741552;28;20230;-77
2024/01/13 06:07:57;;;;;;;63.08;41.38;;;;;;;;;;1741634;28;20214;-77
2024/01/13 06:08:49;;;;;;;63.17;41.05;;;;;;;;;;1741234;28;20195;-77
2024/01/13 06:09:40;;;;;;;64.93;41.67;;;;;;;;;;1741162;28;20214;-77
2024/01/13 06:10:32;;;;;;;67.07;42.70;;;;;;;;;;1742793;28;20226;-77
2024/01/13 06:11:24;;;;;;;61.10;40.75;;;;;;;;;;1741612;28;20203;-77
2024/01/13 06:12:15;;;;;;;55.15;39.25;;;;;;;;;;1746206;28;20203;-77
2024/01/13 06:13:06;;;;;;;61.15;43.45;;;;;;;;;;1748601;28;20657;-78
2024/01/13 06:13:59;;;;;;;60.25;40.85;;;;;;;;;;1748524;28;20207;-77
2024/01/13 06:14:50;;;;;;;60.42;41.83;;;;;;;;;;1748441;28;20209;-77
2024/01/13 06:15:44;;;;;;;60.90;41.45;;;;;;;;;;1746821;28;20210;-77
2024/01/13 06:16:35;;;;;;;65.10;41.65;;;;;;;;;;1741586;28;20586;-77
2024/01/13 06:17:26;;;;;;;65.25;43.05;;;;;;;;;;1741778;28;20203;-78
2024/01/13 06:18:18;;;;;;;68.18;43.65;;;;;;;;;;1748494;28;20237;-78
2024/01/13 06:19:09;;;;;;;64.78;43.45;;;;;;;;;;1748410;28;20202;-77
2024/01/13 06:20:00;;;;;;;61.13;41.97;;;;;;;;;;1742344;28;20219;-77
2024/01/13 06:20:52;;;;;;;59.90;41.50;;;;;;;;;;1741572;28;20557;-77
2024/01/13 06:21:43;;;;;;;64.78;43.50;;;;;;;;;;1745473;28;20214;-77
2024/01/13 06:22:34;;;;;;;67.90;43.00;;;;;;;;;;1748235;28;20293;-77
2024/01/13 06:23:26;;;;;;;65.78;44.30;;;;;;;;;;1745828;28;20207;-77
2024/01/13 06:24:18;;;;;;;64.18;42.97;;;;;;;;;;1741681;28;20207;-78
2024/01/13 06:25:10;;;;;;;64.45;43.78;;;;;;;;;;1743783;28;20191;-78
2024/01/13 06:26:01;;;;;;;64.10;43.33;;;;;;;;;;1748513;28;20206;-78
2024/01/13 06:26:52;;;;;;;64.82;41.80;;;;;;;;;;1748425;28;20198;-77
2024/01/13 06:27:44;;;;;;;60.20;42.65;;;;;;;;;;1748448;28;20206;-78
2024/01/13 06:28:35;;;;;;;58.90;39.65;;;;;;;;;;1748627;28;20213;-78
2024/01/13 06:29:28;;;;;;;61.47;39.95;;;;;;;;;;1742976;28;20219;-77
2024/01/13 06:30:19;;;;;;;55.33;38.58;;;;;;;;;;1741543;28;20207;-78
2024/01/13 06:31:13;;;;;;;58.25;39.20;;;;;;;;;;1744970;28;20202;-78
2024/01/13 06:32:04;;;;;;;62.40;40.13;;;;;;;;;;1748309;28;20199;-77
2024/01/13 06:32:55;;;;;;;57.55;37.92;;;;;;;;;;1746214;28;20211;-78
2024/01/13 06:33:47;;;;;;;60.20;39.70;;;;;;;;;;1741460;28;20205;-77
2024/01/13 06:34:38;;;;;;;53.25;37.42;;;;;;;;;;1742127;28;20203;-78
2024/01/13 06:35:29;;;;;;;58.30;39.83;;;;;;;;;;1748547;28;20675;-78
2024/01/13 06:36:21;;;;;;;56.35;37.60;;;;;;;;;;1748025;28;20222;-78
2024/01/13 06:37:12;;;;;;;57.53;39.90;;;;;;;;;;1747624;28;20210;-77
2024/01/13 06:38:03;;;;;;;54.60;36.85;;;;;;;;;;1748185;28;20198;-77
2024/01/13 06:38:56;;;;;;;57.20;39.30;;;;;;;;;;1748309;28;20718;-78
2024/01/13 06:39:47;;;;;;;55.35;38.08;;;;;;;;;;1747937;28;20209;-77
2024/01/13 06:40:39;;;;;;;60.88;39.97;;;;;;;;;;1745322;28;20199;-77
2024/01/13 06:41:30;;;;;;;58.47;41.22;;;;;;;;;;1741393;28;20207;-78
2024/01/13 06:42:21;;;;;;;58.13;39.42;;;;;;;;;;1742874;28;20606;-78
2024/01/13 06:43:13;;;;;;;66.47;42.47;;;;;;;;;;1748349;28;20223;-78
2024/01/13 06:44:04;;;;;;;62.00;41.60;;;;;;;;;;1748254;28;20199;-78
2024/01/13 06:44:55;;;;;;;63.85;41.72;;;;;;;;;;1741350;28;20207;-77
2024/01/13 06:45:47;;;;;;;59.10;42.03;;;;;;;;;;1741304;28;20361;-78
2024/01/13 06:46:40;;;;;;;70.47;42.60;;;;;;;;;;1746729;28;20207;-77
2024/01/13 06:47:32;;;;;;;61.65;41.83;;;;;;;;;;1748311;28;20569;-78
2024/01/13 06:48:24;;;;;;;60.35;42.60;;;;;;;;;;1744211;28;20236;-78
2024/01/13 06:49:15;;;;;;;61.75;39.35;;;;;;;;;;1741894;28;20218;-78
2024/01/13 06:50:07;;;;;;;54.97;38.17;;;;;;;;;;1743689;28;20199;-78
2024/01/13 06:50:58;;;;;;;58.03;40.00;;;;;;;;;;1744416;28;20842;-77
2024/01/13 06:51:49;;;;;;;58.75;40.15;;;;;;;;;;1742337;28;20281;-78
2024/01/13 06:52:41;;;;;;;57.65;39.83;;;;;;;;;;1748019;28;20195;-77
2024/01/13 06:53:33;;;;;;;59.17;39.20;;;;;;;;;;1748216;28;20213;-78
2024/01/13 06:54:24;;;;;;;59.42;40.95;;;;;;;;;;1748264;28;20232;-78
2024/01/13 06:55:16;;;;;;;58.38;38.58;;;;;;;;;;1747027;28;20278;-78
2024/01/13 06:56:08;;;;;;;56.58;37.75;;;;;;;;;;1743529;28;20575;-78
2024/01/13 06:57:00;;;;;;;58.53;38.85;;;;;;;;;;1741831;28;20227;-78
2024/01/13 06:57:51;;;;;;;55.30;37.90;;;;;;;;;;1745130;28;20217;-77
2024/01/13 06:58:42;;;;;;;53.88;35.05;;;;;;;;;;1748108;28;20205;-77
2024/01/13 06:59:35;;;;;;;54.95;37.50;;;;;;;;;;1745106;28;20320;-76
2024/01/13 07:00:26;;;;;;;55.97;38.45;;;;;;;;;;1741249;28;20241;-77
2024/01/13 07:01:18;;;;;;;53.83;35.83;;;;;;;;;;1741757;28;20643;-76
2024/01/13 07:02:10;;;;;;;57.05;37.25;;;;;;;;;;1747878;28;20570;-77
2024/01/13 07:03:01;;;;;;;55.63;37.53;;;;;;;;;;1747926;28;20223;-77
2024/01/13 07:03:53;;;;;;;58.45;38.05;;;;;;;;;;1748014;28;20225;-77
2024/01/13 07:04:45;;;;;;;59.65;37.38;;;;;;;;;;1748029;28;20203;-77
2024/01/13 07:05:37;;;;;;;57.72;38.00;;;;;;;;;;1743540;28;20253;-77
2024/01/13 07:06:28;;;;;;;54.20;37.28;;;;;;;;;;1741188;28;20679;-77
2024/01/13 07:07:19;;;;;;;57.00;36.90;;;;;;;;;;1744260;28;20202;-77
2024/01/13 07:08:11;;;;;;;58.55;36.38;;;;;;;;;;1748071;28;20195;-77
2024/01/13 07:09:02;;;;;;;55.35;35.20;;;;;;;;;;1746538;28;20217;-76
2024/01/13 07:09:53;;;;;;;55.53;36.17;;;;;;;;;;1746648;28;20220;-77
2024/01/13 07:10:48;;;;;;;54.75;37.45;;;;;;;;;;1748082;28;20255;-77
2024/01/13 07:11:39;;;;;;;56.40;39.13;;;;;;;;;;1741174;28;20204;-77
2024/01/13 07:12:31;;;;;;;60.17;37.85;;;;;;;;;;1746247;28;20220;-76
2024/01/13 07:13:22;;;;;;;60.67;40.92;;;;;;;;;;1742153;28;20714;-76
2024/01/13 07:14:14;;;;;;;63.15;41.45;;;;;;;;;;1741136;28;20195;-76
2024/01/13 07:15:06;;;;;;;57.58;38.55;;;;;;;;;;1745423;28;20210;-76
2024/01/13 07:15:58;;;;;;;59.00;38.60;;;;;;;;;;1748090;28;20233;-76
2024/01/13 07:16:49;;;;;;;59.50;40.35;;;;;;;;;;1747975;28;20221;-76
2024/01/13 07:17:41;;;;;;;59.97;40.60;;;;;;;;;;1747935;28;20255;-76
2024/01/13 07:18:33;;;;;;;61.25;40.28;;;;;;;;;;1746567;28;20209;-77
2024/01/13 07:19:24;;;;;;;58.85;39.97;;;;;;;;;;1741506;28;20203;-77
2024/01/13 07:20:16;;;;;;;58.95;40.45;;;;;;;;;;1741476;28;20663;-77
2024/01/13 07:21:07;;;;;;;57.47;39.95;;;;;;;;;;1740847;28;20203;-77
2024/01/13 07:21:59;;;;;;;59.17;39.42;;;;;;;;;;1741200;28;20725;-77
2024/01/13 07:22:51;;;;;;;57.83;38.88;;;;;;;;;;1746367;28;20249;-77
2024/01/13 07:23:43;;;;;;;55.38;38.60;;;;;;;;;;1748782;28;20217;-79
2024/01/13 07:24:34;;;;;;;56.97;39.55;;;;;;;;;;1744808;28;20207;-79
2024/01/13 07:25:26;;;;;;;58.72;40.15;;;;;;;;;;1741132;28;20214;-77
2024/01/13 07:26:17;;;;;;;57.10;39.72;;;;;;;;;;1744607;28;20229;-77
2024/01/13 07:27:09;;;;;;;55.60;37.83;;;;;;;;;;1747972;28;20281;-76
2024/01/13 07:28:01;;;;;;;55.42;37.30;;;;;;;;;;1747965;28;20281;-77
2024/01/13 07:28:53;;;;;;;54.42;38.25;;;;;;;;;;1748132;28;20206;-77
2024/01/13 07:29:44;;;;;;;48.17;36.53;;;;;;;;;;1747713;28;20206;-77
2024/01/13 07:30:36;;;;;;;45.70;34.55;;;;;;;;;;1742076;28;20298;-78
2024/01/13 07:31:27;;;;;;;48.50;33.95;;;;;;;;;;1741347;28;20623;-77
2024/01/13 07:32:19;;;;;;;49.10;34.50;;;;;;;;;;1746176;28;20202;-77
2024/01/13 07:33:12;;;;;;;51.97;35.47;;;;;;;;;;1748414;28;20231;-78
2024/01/13 07:34:04;;;;;;;48.45;34.95;;;;;;;;;;1744820;28;20206;-77
2024/01/13 07:34:55;;;;;;;49.00;34.40;;;;;;;;;;1741161;28;20203;-76
2024/01/13 07:35:47;;;;;;;47.75;34.10;;;;;;;;;;1743084;28;20266;-77
2024/01/13 07:36:38;;;;;;;45.85;32.10;;;;;;;;;;1748193;28;20217;-77
2024/01/13 07:37:29;;;;;;;45.17;33.05;;;;;;;;;;1747693;28;20263;-77
2024/01/13 07:38:21;;;;;;;48.50;34.53;;;;;;;;;;1741344;28;20197;-77
2024/01/13 07:39:12;;;;;;;46.08;32.58;;;;;;;;;;1741422;28;20659;-77
2024/01/13 07:40:04;;;;;;;47.90;33.88;;;;;;;;;;1746874;28;20202;-77
2024/01/13 07:40:56;;;;;;;47.47;33.95;;;;;;;;;;1748190;28;20198;-77
2024/01/13 07:41:48;;;;;;;49.40;36.40;;;;;;;;;;1743528;28;20214;-77
2024/01/13 07:42:39;;;;;;;50.08;36.60;;;;;;;;;;1745019;28;20186;-78
2024/01/13 07:43:31;;;;;;;53.65;36.17;;;;;;;;;;1744964;28;20353;-78
2024/01/13 07:44:22;;;;;;;53.17;36.92;;;;;;;;;;1741596;28;20615;-78
2024/01/13 07:45:15;;;;;;;51.95;36.03;;;;;;;;;;1742814;28;20642;-77
2024/01/13 07:46:06;;;;;;;52.10;36.15;;;;;;;;;;1748157;28;20683;-77
2024/01/13 07:47:01;;;;;;;57.35;38.05;;;;;;;;;;1748336;28;20729;-77
2024/01/13 07:47:53;;;;;;;56.92;39.63;;;;;;;;;;1741310;28;20194;-77
2024/01/13 07:48:45;;;;;;;55.00;37.30;;;;;;;;;;1741621;28;20211;-77
2024/01/13 07:49:36;;;;;;;54.22;39.45;;;;;;;;;;1747116;28;20217;-77
2024/01/13 07:50:28;;;;;;;57.38;39.35;;;;;;;;;;1748394;28;20194;-80
2024/01/13 07:51:19;;;;;;;56.55;40.03;;;;;;;;;;1748476;28;20233;-81
2024/01/13 07:52:10;;;;;;;57.65;41.72;;;;;;;;;;1748880;28;20251;-81
2024/01/13 07:53:02;;;;;;;60.88;40.80;;;;;;;;;;1745636;28;20742;-81
2024/01/13 07:53:53;;;;;;;59.47;41.38;;;;;;;;;;1741822;28;20210;-80
2024/01/13 07:54:45;;;;;;;59.15;40.33;;;;;;;;;;1743380;28;20651;-80
2024/01/13 07:55:37;;;;;;;63.80;42.78;;;;;;;;;;1748878;28;20227;-80
2024/01/13 07:56:28;;;;;;;64.40;43.05;;;;;;;;;;1748822;28;20217;-79
2024/01/13 07:57:19;;;;;;;58.33;42.60;;;;;;;;;;1741025;28;20199;-77
2024/01/13 07:58:11;;;;;;;60.25;41.83;;;;;;;;;;1740973;28;20203;-76
2024/01/13 07:59:03;;;;;;;61.63;42.88;;;;;;;;;;1744694;28;20203;-76
2024/01/13 07:59:55;;;;;;;57.15;40.00;;;;;;;;;;1747630;28;20202;-76
2024/01/13 08:00:46;;;;;;;57.72;40.45;;;;;;;;;;1743846;28;20217;-77
2024/01/13 08:01:38;;;;;;;58.78;40.35;;;;;;;;;;1740957;28;20207;-76
2024/01/13 08:02:30;;;;;;;58.47;39.35;;;;;;;;;;1743161;28;20195;-76
2024/01/13 08:03:21;;;;;;;53.42;37.67;;;;;;;;;;1747748;28;20249;-77
2024/01/13 08:04:15;;;;;;;51.20;36.53;;;;;;;;;;1747818;28;20252;-76
2024/01/13 08:05:06;;;;;;;49.88;36.85;;;;;;;;;;1747776;28;20198;-76
2024/01/13 08:05:58;;;;;;;54.50;38.28;;;;;;;;;;1747875;28;20205;-77
2024/01/13 08:06:49;;;;;;;48.70;35.05;;;;;;;;;;1740981;28;20391;-76
2024/01/13 08:07:40;;;;;;;51.35;36.38;;;;;;;;;;1740925;28;20199;-77
2024/01/13 08:08:32;;;;;;;53.67;38.67;;;;;;;;;;1745997;28;20206;-77
2024/01/13 08:09:24;;;;;;;50.40;35.83;;;;;;;;;;1747601;28;20225;-76
2024/01/13 08:10:16;;;;;;;49.58;36.20;;;;;;;;;;1744171;28;20202;-77
2024/01/13 08:11:07;;;;;;;50.03;36.00;;;;;;;;;;1741003;28;20663;-77
2024/01/13 08:11:58;;;;;;;50.38;36.28;;;;;;;;;;1741230;28;20233;-76
2024/01/13 08:12:50;;;;;;;51.25;36.85;;;;;;;;;;1744526;28;20210;-77
2024/01/13 08:13:41;;;;;;;52.75;38.42;;;;;;;;;;1744394;28;20202;-77
2024/01/13 08:14:32;;;;;;;58.65;37.38;;;;;;;;;;1744908;28;20191;-77
2024/01/13 08:15:24;;;;;;;50.80;36.78;;;;;;;;;;1744424;28;20203;-76
2024/01/13 08:16:15;;;;;;;51.67;36.83;;;;;;;;;;1743950;28;20203;-76
2024/01/13 08:17:08;;;;;;;54.17;37.45;;;;;;;;;;1743922;28;20191;-76
2024/01/13 08:17:59;;;;;;;54.40;38.10;;;;;;;;;;1743532;28;20282;-76
2024/01/13 08:18:50;;;;;;;56.38;39.22;;;;;;;;;;1744866;28;20208;-77
2024/01/13 08:19:44;;;;;;;51.53;35.22;;;;;;;;;;1744494;28;20204;-77
2024/01/13 08:20:35;;;;;;;50.97;35.85;;;;;;;;;;1743630;28;20217;-77
2024/01/13 08:21:26;;;;;;;46.97;34.20;;;;;;;;;;1744063;28;20211;-77
2024/01/13 08:22:18;;;;;;;45.55;33.42;;;;;;;;;;1745058;28;20687;-77
2024/01/13 08:23:09;;;;;;;50.38;36.00;;;;;;;;;;1743552;28;20210;-76
2024/01/13 08:24:00;;;;;;;47.70;35.40;;;;;;;;;;1743532;28;20681;-76
2024/01/13 08:24:52;;;;;;;52.47;35.25;;;;;;;;;;1745071;28;20293;-77
2024/01/13 08:25:43;;;;;;;47.83;33.92;;;;;;;;;;1744397;28;20202;-77
2024/01/13 08:26:36;;;;;;;49.03;35.05;;;;;;;;;;1743507;28;20203;-77
2024/01/13 08:27:28;;;;;;;44.58;29.95;;;;;;;;;;1745664;28;20240;-76
2024/01/13 08:28:19;;;;;;;42.97;30.73;;;;;;;;;;1743481;28;20587;-76
2024/01/13 08:29:10;;;;;;;40.58;29.20;;;;;;;;;;1744609;28;20195;-76
2024/01/13 08:30:02;;;;;;;38.58;27.95;;;;;;;;;;1741791;28;20234;-77
2024/01/13 08:30:53;;;;;;;37.50;26.85;;;;;;;;;;1740903;28;20214;-76
2024/01/13 08:31:47;;;;;;;33.72;24.92;;;;;;;;;;1740996;28;20214;-77
2024/01/13 08:32:40;;;;;;;30.20;23.02;;;;;;;;;;1742200;28;20199;-76
2024/01/13 08:33:31;;;;;;;33.40;23.33;;;;;;;;;;1742265;28;20543;-77
2024/01/13 08:34:23;;;;;;;31.17;24.50;;;;;;;;;;1742207;28;20253;-77
2024/01/13 08:35:16;;;;;;;36.55;26.92;;;;;;;;;;1747468;28;20198;-77
2024/01/13 08:36:07;;;;;;;38.33;26.88;;;;;;;;;;1749000;28;20209;-77
2024/01/13 08:36:59;;;;;;;37.92;27.27;;;;;;;;;;1745048;28;20285;-76
2024/01/13 08:37:51;;;;;;;35.30;26.08;;;;;;;;;;1742007;28;20230;-75
2024/01/13 08:38:44;;;;;;;31.55;25.63;;;;;;;;;;1744670;28;20260;-77
2024/01/13 08:39:35;;;;;;;33.17;23.65;;;;;;;;;;1748744;28;20244;-76
2024/01/13 08:40:27;;;;;;;31.38;24.30;;;;;;;;;;1747739;28;20206;-76
2024/01/13 08:41:18;;;;;;;29.60;21.85;;;;;;;;;;1742183;28;20214;-77
2024/01/13 08:42:10;;;;;;;28.23;21.00;;;;;;;;;;1742097;28;20570;-76
2024/01/13 08:43:03;;;;;;;29.50;22.95;;;;;;;;;;1748674;28;20283;-76
2024/01/13 08:43:54;;;;;;;27.52;21.00;;;;;;;;;;1745541;28;20219;-77
2024/01/13 08:44:45;;;;;;;28.95;21.92;;;;;;;;;;1746253;28;20190;-77
2024/01/13 08:45:37;;;;;;;30.83;22.42;;;;;;;;;;1745580;28;20191;-76
2024/01/13 08:46:28;;;;;;;26.13;20.45;;;;;;;;;;1746211;28;20207;-75
2024/01/13 08:47:20;;;;;;;27.80;18.25;;;;;;;;;;1744956;28;20222;-77
2024/01/13 08:48:11;;;;;;;26.98;19.42;;;;;;;;;;1744658;28;20195;-77
2024/01/13 08:49:04;;;;;;;25.95;19.85;;;;;;;;;;1743990;28;20237;-77
2024/01/13 08:49:56;;;;;;;27.08;19.58;;;;;;;;;;1743901;28;20191;-76
2024/01/13 08:50:48;;;;;;;27.02;19.50;;;;;;;;;;1745998;28;20202;-77
2024/01/13 08:51:40;;;;;;;28.00;20.52;;;;;;;;;;1744718;28;20281;-77
2024/01/13 08:52:32;;;;;;;28.13;19.85;;;;;;;;;;1745050;28;20644;-77
2024/01/13 08:53:23;;;;;;;31.42;22.70;;;;;;;;;;1746016;28;20257;-76
2024/01/13 08:54:15;;;;;;;29.20;21.45;;;;;;;;;;1744968;28;20190;-77
2024/01/13 08:55:07;;;;;;;34.47;23.27;;;;;;;;;;1744634;28;20194;-77
2024/01/13 08:55:58;;;;;;;31.73;24.40;;;;;;;;;;1744635;28;20198;-76
2024/01/13 08:56:51;;;;;;;38.35;25.42;;;;;;;;;;1743484;28;20191;-76
2024/01/13 08:57:42;;;;;;;33.67;24.63;;;;;;;;;;1743975;28;20716;-77
2024/01/13 08:58:33;;;;;;;37.15;26.33;;;;;;;;;;1744909;28;20214;-77
2024/01/13 08:59:25;;;;;;;42.30;26.92;;;;;;;;;;1744530;28;20199;-76
2024/01/13 09:00:17;;;;;;;36.55;27.17;;;;;;;;;;1746219;28;20203;-76
2024/01/13 09:01:08;;;;;;;35.25;26.15;;;;;;;;;;1745249;28;20194;-77
2024/01/13 09:02:00;;;;;;;37.58;26.77;;;;;;;;;;1744505;28;20216;-77
2024/01/13 09:02:53;;;;;;;38.53;27.48;;;;;;;;;;1745713;28;20714;-77
2024/01/13 09:03:45;;;;;;;37.13;27.55;;;;;;;;;;1745625;28;20253;-76
2024/01/13 09:04:38;;;;;;;38.58;27.80;;;;;;;;;;1744636;28;20655;-77
2024/01/13 09:05:29;;;;;;;36.58;25.55;;;;;;;;;;1746420;28;20195;-77
2024/01/13 09:06:22;;;;;;;34.78;24.42;;;;;;;;;;1744595;28;20217;-77
2024/01/13 09:07:13;;;;;;;33.40;24.27;;;;;;;;;;1745186;28;20195;-76
2024/01/13 09:08:05;;;;;;;31.25;23.65;;;;;;;;;;1745532;28;20194;-77
2024/01/13 09:08:56;;;;;;;37.72;27.20;;;;;;;;;;1744612;28;20191;-77
2024/01/13 09:09:47;;;;;;;36.80;26.80;;;;;;;;;;1744770;28;20192;-77
2024/01/13 09:10:40;;;;;;;41.13;29.98;;;;;;;;;;1745907;28;20670;-77
2024/01/13 09:11:31;;;;;;;39.90;28.52;;;;;;;;;;1744794;28;20233;-76
2024/01/13 09:12:22;;;;;;;40.85;28.33;;;;;;;;;;1744545;28;20655;-77
2024/01/13 09:13:14;;;;;;;44.92;29.63;;;;;;;;;;1744642;28;20219;-76
2024/01/13 09:14:05;;;;;;;44.35;31.60;;;;;;;;;;1744841;28;20605;-77
2024/01/13 09:14:58;;;;;;;42.42;30.08;;;;;;;;;;1745846;28;20195;-77
2024/01/13 09:15:50;;;;;;;41.00;30.23;;;;;;;;;;1745042;28;20205;-76
2024/01/13 09:16:41;;;;;;;46.42;32.92;;;;;;;;;;1744417;28;20195;-76
2024/01/13 09:17:33;;;;;;;45.45;32.13;;;;;;;;;;1745828;28;20617;-77
2024/01/13 09:18:25;;;;;;;44.45;30.77;;;;;;;;;;1745596;28;20203;-76
2024/01/13 09:19:17;;;;;;;43.40;29.92;;;;;;;;;;1744553;28;20191;-77
2024/01/13 09:20:10;;;;;;;40.90;30.58;;;;;;;;;;1744692;28;20202;-76
2024/01/13 09:21:01;;;;;;;44.22;29.70;;;;;;;;;;1745400;28;20195;-76
2024/01/13 09:21:55;;;;;;;44.13;31.33;;;;;;;;;;1745632;28;20321;-77
2024/01/13 09:22:46;;;;;;;41.85;29.63;;;;;;;;;;1746597;28;20225;-76
2024/01/13 09:23:37;;;;;;;36.88;26.75;;;;;;;;;;1744408;28;20666;-76
2024/01/13 09:24:29;;;;;;;35.35;24.70;;;;;;;;;;1745103;28;20198;-76
2024/01/13 09:25:20;;;;;;;33.55;23.38;;;;;;;;;;1745894;28;20226;-76
2024/01/13 09:26:11;;;;;;;32.30;23.45;;;;;;;;;;1745470;28;20195;-76
2024/01/13 09:27:03;;;;;;;27.92;20.30;;;;;;;;;;1745880;28;20563;-77
2024/01/13 09:27:54;;;;;;;30.85;22.05;;;;;;;;;;1744423;28;20202;-77
2024/01/13 09:28:47;;;;;;;32.72;23.92;;;;;;;;;;1747148;28;20196;-77
2024/01/13 09:29:38;;;;;;;38.35;28.77;;;;;;;;;;1744113;28;20194;-76
2024/01/13 09:30:30;;;;;;;42.15;28.55;;;;;;;;;;1745355;28;20214;-76
2024/01/13 09:31:22;;;;;;;43.97;29.90;;;;;;;;;;1747280;28;20642;-77
2024/01/13 09:32:14;;;;;;;39.38;28.77;;;;;;;;;;1749653;28;20198;-76
2024/01/13 09:33:05;;;;;;;38.58;28.40;;;;;;;;;;1748287;28;20219;-76
2024/01/13 09:33:57;;;;;;;43.25;29.40;;;;;;;;;;1745509;28;20199;-76
2024/01/13 09:34:48;;;;;;;37.55;26.80;;;;;;;;;;1740931;28;20199;-76
2024/01/13 09:35:40;;;;;;;39.97;28.15;;;;;;;;;;1741989;28;20581;-76
2024/01/13 09:36:31;;;;;;;35.40;25.75;;;;;;;;;;1747924;28;20206;-76
2024/01/13 09:37:24;;;;;;;31.40;24.00;;;;;;;;;;1748234;28;20256;-76
2024/01/13 09:38:15;;;;;;;30.63;21.85;;;;;;;;;;1741476;28;20207;-76
2024/01/13 09:39:10;;;;;;;32.28;21.90;;;;;;;;;;1742577;28;20195;-76
2024/01/13 09:40:04;;;;;;;27.63;21.15;;;;;;;;;;1746414;28;20206;-76
2024/01/13 09:40:55;;;;;;;30.35;23.67;;;;;;;;;;1748044;28;20203;-76
2024/01/13 09:41:47;;;;;;;30.95;21.33;;;;;;;;;;1748017;28;20615;-76
2024/01/13 09:42:51;;;;;;;29.13;22.33;;;;;;;;;;1747913;28;20732;-76
2024/01/13 09:43:49;;;;;;;31.60;22.88;;;;;;;;;;1743207;28;20261;-76
2024/01/13 09:44:41;;;;;;;25.65;20.05;;;;;;;;;;1741308;28;20209;-76
2024/01/13 09:45:32;;;;;;;25.08;19.50;;;;;;;;;;1745255;28;20206;-76
2024/01/13 09:46:23;;;;;;;28.70;21.75;;;;;;;;;;1746638;28;20203;-76
2024/01/13 09:47:16;;;;;;;24.67;19.08;;;;;;;;;;1748676;28;20206;-77
2024/01/13 09:48:08;;;;;;;28.35;20.08;;;;;;;;;;1753393;28;20194;-76
2024/01/13 09:49:01;;;;;;;25.85;20.55;;;;;;;;;;1753176;28;20206;-77
2024/01/13 09:49:54;;;;;;;27.13;20.63;;;;;;;;;;1749808;28;20185;-76
2024/01/13 09:50:46;;;;;;;25.33;19.38;;;;;;;;;;1753634;28;20253;-77
2024/01/13 09:51:37;;;;;;;24.13;18.48;;;;;;;;;;1752323;28;20208;-76
2024/01/13 09:52:30;;;;;;;27.45;19.17;;;;;;;;;;1753802;28;20197;-76
2024/01/13 09:53:27;;;;;;;22.83;17.77;;;;;;;;;;1751467;28;20208;-76
2024/01/13 09:54:23;;;;;;;21.33;17.45;;;;;;;;;;1744267;28;20229;-75
2024/01/13 09:55:16;;;;;;;24.25;19.20;;;;;;;;;;1750510;28;20205;-75
2024/01/13 09:56:12;;;;;;;19.92;16.92;;;;;;;;;;1746801;28;20186;-76
2024/01/13 09:57:04;;;;;;;22.10;16.75;;;;;;;;;;1747841;28;20783;-76
2024/01/13 09:57:55;;;;;;;21.77;17.77;;;;;;;;;;1748412;28;20199;-76
2024/01/13 09:58:48;;;;;;;21.98;17.92;;;;;;;;;;1747187;28;20199;-76
2024/01/13 09:59:41;;;;;;;23.50;17.58;;;;;;;;;;1747424;28;20198;-76
2024/01/13 10:00:35;;;;;;;24.65;18.83;;;;;;;;;;1747679;28;20197;-77
2024/01/13 10:01:27;;;;;;;22.63;17.58;;;;;;;;;;1748044;28;20191;-76
2024/01/13 10:02:18;;;;;;;24.33;16.92;;;;;;;;;;1747144;28;20198;-77
2024/01/13 10:03:10;;;;;;;21.48;16.98;;;;;;;;;;1748140;28;20568;-76
2024/01/13 10:04:01;;;;;;;21.55;16.80;;;;;;;;;;1751766;28;20221;-76
2024/01/13 10:04:52;;;;;;;21.23;16.33;;;;;;;;;;1747661;28;20285;-77
2024/01/13 10:05:44;;;;;;;21.10;16.85;;;;;;;;;;1746053;28;20840;-76
2024/01/13 10:06:36;;;;;;;22.42;15.90;;;;;;;;;;1749422;28;20565;-77
2024/01/13 10:07:30;;;;;;;19.85;16.10;;;;;;;;;;1748431;28;20270;-77
2024/01/13 10:08:28;;;;;;;18.88;14.85;;;;;;;;;;1745662;28;20242;-76
2024/01/13 10:09:21;;;;;;;17.08;14.35;;;;;;;;;;1752845;28;20579;-77
2024/01/13 10:10:12;;;;;;;15.35;13.35;;;;;;;;;;1745115;28;20268;-77
2024/01/13 10:11:04;;;;;;;14.02;12.10;;;;;;;;;;1743870;28;20191;-77
2024/01/13 10:11:56;;;;;;;14.35;12.48;;;;;;;;;;1753916;28;20228;-76
2024/01/13 10:12:47;;;;;;;14.27;11.85;;;;;;;;;;1748327;28;20701;-76
2024/01/13 10:13:38;;;;;;;13.20;11.35;;;;;;;;;;1752084;28;20247;-76
2024/01/13 10:14:30;;;;;;;14.52;11.98;;;;;;;;;;1745158;28;20199;-76
2024/01/13 10:15:21;;;;;;;17.88;14.25;;;;;;;;;;1748581;28;20202;-76
2024/01/13 10:16:13;;;;;;;17.70;13.35;;;;;;;;;;1748969;28;20228;-76
2024/01/13 10:17:05;;;;;;;14.23;12.02;;;;;;;;;;1748460;28;20213;-77
2024/01/13 10:17:57;;;;;;;15.32;12.80;;;;;;;;;;1751649;28;20662;-76
2024/01/13 10:18:48;;;;;;;15.70;14.00;;;;;;;;;;1755350;28;20198;-76
2024/01/13 10:19:40;;;;;;;15.35;12.77;;;;;;;;;;1749095;28;20252;-77
2024/01/13 10:20:31;;;;;;;15.20;12.02;;;;;;;;;;1751335;28;20206;-76
2024/01/13 10:21:23;;;;;;;15.90;11.90;;;;;;;;;;1753884;28;20204;-76
2024/01/13 10:22:18;;;;;;;14.07;12.27;;;;;;;;;;1750881;28;20194;-76
2024/01/13 10:23:09;;;;;;;14.70;12.18;;;;;;;;;;1755242;28;20317;-76
2024/01/13 10:24:01;;;;;;;12.95;11.25;;;;;;;;;;1748049;28;20742;-76
2024/01/13 10:24:56;;;;;;;14.38;11.30;;;;;;;;;;1751747;28;20217;-76
2024/01/13 10:25:47;;;;;;;13.38;11.88;;;;;;;;;;1749295;28;20229;-76
2024/01/13 10:26:38;;;;;;;14.85;12.30;;;;;;;;;;1748430;28;20562;-76
2024/01/13 10:27:30;;;;;;;15.90;12.52;;;;;;;;;;1748875;28;20205;-77
2024/01/13 10:28:23;;;;;;;17.17;13.40;;;;;;;;;;1748176;28;20210;-76
2024/01/13 10:29:14;;;;;;;13.52;11.88;;;;;;;;;;1745985;28;20203;-76
2024/01/13 10:30:08;;;;;;;15.07;12.75;;;;;;;;;;1749510;28;20205;-76
2024/01/13 10:31:01;;;;;;;15.45;12.90;;;;;;;;;;1755281;28;20198;-76
2024/01/13 10:31:53;;;;;;;15.15;13.25;;;;;;;;;;1755156;28;20598;-77
2024/01/13 10:32:48;;;;;;;14.63;12.18;;;;;;;;;;1749907;28;20268;-77
2024/01/13 10:33:40;;;;;;;17.08;14.05;;;;;;;;;;1741501;28;20207;-76
2024/01/13 10:34:31;;;;;;;16.77;13.73;;;;;;;;;;1747756;28;21608;-77
2024/01/13 10:35:23;;;;;;;15.82;13.43;;;;;;;;;;1754144;28;20675;-76
2024/01/13 10:36:14;;;;;;;15.90;13.45;;;;;;;;;;1754575;28;20201;-76
2024/01/13 10:37:09;;;;;;;15.93;12.68;;;;;;;;;;1748284;28;20606;-77
2024/01/13 10:38:00;;;;;;;16.08;13.45;;;;;;;;;;1748470;28;20659;-77
2024/01/13 10:38:52;;;;;;;16.20;13.30;;;;;;;;;;1748372;28;20199;-77
2024/01/13 10:39:45;;;;;;;17.13;13.68;;;;;;;;;;1747942;28;20205;-77
2024/01/13 10:40:37;;;;;;;17.13;14.20;;;;;;;;;;1746101;28;20313;-76
2024/01/13 10:41:29;;;;;;;18.27;14.63;;;;;;;;;;1741423;28;20214;-77
2024/01/13 10:42:22;;;;;;;17.92;14.20;;;;;;;;;;1742293;28;20202;-76
2024/01/13 10:43:14;;;;;;;18.80;14.50;;;;;;;;;;1748085;28;20219;-76
2024/01/13 10:44:08;;;;;;;18.90;14.73;;;;;;;;;;1748121;28;20964;-77
2024/01/13 10:45:00;;;;;;;22.05;15.45;;;;;;;;;;1748151;28;20191;-77
2024/01/13 10:45:54;;;;;;;18.10;14.77;;;;;;;;;;1748201;28;20201;-77
2024/01/13 10:46:49;;;;;;;20.55;15.00;;;;;;;;;;1748187;28;20289;-76
2024/01/13 10:47:42;;;;;;;21.38;15.32;;;;;;;;;;1748280;28;20198;-76
2024/01/13 10:48:38;;;;;;;19.45;14.63;;;;;;;;;;1742370;28;20235;-77
2024/01/13 10:49:29;;;;;;;17.00;14.60;;;;;;;;;;1742593;28;20207;-76
2024/01/13 10:50:22;;;;;;;18.65;15.18;;;;;;;;;;1748248;28;20213;-77
2024/01/13 10:51:29;;;;;;;17.60;14.50;;;;;;;;;;1747438;28;20202;-75
2024/01/13 10:52:25;;;;;;;16.17;14.10;;;;;;;;;;1743358;28;20203;-77
2024/01/13 10:53:18;;;;;;;15.82;13.65;;;;;;;;;;1741227;28;20199;-76
2024/01/13 10:54:10;;;;;;;17.42;15.02;;;;;;;;;;1745265;28;20210;-76
2024/01/13 10:55:03;;;;;;;18.58;15.88;;;;;;;;;;1747993;28;20259;-76
2024/01/13 10:55:55;;;;;;;18.30;15.65;;;;;;;;;;1747962;28;20725;-76
2024/01/13 10:56:46;;;;;;;20.98;16.95;;;;;;;;;;1748146;28;20214;-77
2024/01/13 10:57:37;;;;;;;18.65;15.88;;;;;;;;;;1746819;28;20547;-76
2024/01/13 10:58:30;;;;;;;19.13;16.30;;;;;;;;;;1743311;28;20721;-77
2024/01/13 10:59:22;;;;;;;19.40;17.13;;;;;;;;;;1747954;28;20550;-76
2024/01/13 11:00:14;;;;;;;20.50;16.10;;;;;;;;;;1741149;28;20203;-76
2024/01/13 11:01:06;;;;;;;19.42;15.20;;;;;;;;;;1741307;28;20210;-76
2024/01/13 11:01:57;;;;;;;19.33;16.23;;;;;;;;;;1746786;28;20210;-76